Time;durP1;ratioP1;P1;durP2;ratioP2;P2;SDS_P1;SDS_P2;PMS_P1;PMS_P2;Temp;Humidity;BMP_temperature;BMP_pressure;BME280_temperature;BME280_humidity;BME280_pressure;Samples;Min_cycle;Max_cycle;Signal;HPM_P1;HPM_P2
2023/09/08 00:01:00;;;;;;;7.80;6.05;;;;;;;;;;5069138;28;20037;-61
2023/09/08 00:03:26;;;;;;;6.68;4.63;;;;;;;;;;5070636;28;20021;-61
2023/09/08 00:05:51;;;;;;;5.93;4.63;;;;;;;;;;5070010;28;20493;-61
2023/09/08 00:08:16;;;;;;;10.05;6.75;;;;;;;;;;5071403;28;20035;-61
2023/09/08 00:10:41;;;;;;;11.13;5.95;;;;;;;;;;5068826;28;20039;-61
2023/09/08 00:13:06;;;;;;;5.80;5.28;;;;;;;;;;5070877;28;20024;-60
2023/09/08 00:15:33;;;;;;;6.23;5.57;;;;;;;;;;5069190;28;20021;-60
2023/09/08 00:17:59;;;;;;;8.45;6.82;;;;;;;;;;5070818;28;20375;-60
2023/09/08 00:20:24;;;;;;;9.77;5.63;;;;;;;;;;5069482;28;20028;-59
2023/09/08 00:22:49;;;;;;;10.75;6.53;;;;;;;;;;5070609;28;20017;-60
2023/09/08 00:25:14;;;;;;;13.27;6.28;;;;;;;;;;5068998;28;20082;-59
2023/09/08 00:27:40;;;;;;;8.50;6.83;;;;;;;;;;5070485;28;20026;-60
2023/09/08 00:30:05;;;;;;;8.80;8.00;;;;;;;;;;5070560;28;20105;-60
2023/09/08 00:32:30;;;;;;;13.35;7.55;;;;;;;;;;5068378;28;20463;-60
2023/09/08 00:34:55;;;;;;;8.38;7.07;;;;;;;;;;5069309;28;20474;-60
2023/09/08 00:37:21;;;;;;;8.30;7.47;;;;;;;;;;5069329;28;20049;-60
2023/09/08 00:39:46;;;;;;;7.53;6.32;;;;;;;;;;5069754;28;20098;-60
2023/09/08 00:42:11;;;;;;;9.32;6.90;;;;;;;;;;5069022;28;20060;-60
2023/09/08 00:44:36;;;;;;;8.40;6.43;;;;;;;;;;5070381;28;20016;-60
2023/09/08 00:47:01;;;;;;;9.57;6.13;;;;;;;;;;5068968;28;20613;-61
2023/09/08 00:49:28;;;;;;;11.57;8.60;;;;;;;;;;5069807;28;20028;-60
2023/09/08 00:51:53;;;;;;;8.25;6.80;;;;;;;;;;5068772;28;20043;-60
2023/09/08 00:54:18;;;;;;;7.90;6.60;;;;;;;;;;5070780;28;20024;-60
2023/09/08 00:56:44;;;;;;;14.65;7.93;;;;;;;;;;5067792;28;20830;-61
2023/09/08 00:59:09;;;;;;;7.03;6.25;;;;;;;;;;5070300;28;20032;-58
2023/09/08 01:01:34;;;;;;;8.50;6.70;;;;;;;;;;5068603;28;20040;-61
2023/09/08 01:04:00;;;;;;;7.13;6.43;;;;;;;;;;5069763;28;20031;-61
2023/09/08 01:06:26;;;;;;;9.68;6.93;;;;;;;;;;5067705;28;20488;-61
2023/09/08 01:08:51;;;;;;;7.75;6.78;;;;;;;;;;5070224;28;20020;-61
2023/09/08 01:11:18;;;;;;;8.98;7.90;;;;;;;;;;5068360;28;20032;-61
2023/09/08 01:13:44;;;;;;;10.57;6.88;;;;;;;;;;5069167;28;20016;-61
2023/09/08 01:16:09;;;;;;;9.50;8.60;;;;;;;;;;5068697;28;20149;-61
2023/09/08 01:18:34;;;;;;;9.27;8.20;;;;;;;;;;5069719;28;20061;-60
2023/09/08 01:20:59;;;;;;;8.53;7.73;;;;;;;;;;5068478;28;20053;-61
2023/09/08 01:23:28;;;;;;;11.65;7.40;;;;;;;;;;5069709;28;20025;-60
2023/09/08 01:25:59;;;;;;;11.73;8.60;;;;;;;;;;5068257;28;20644;-60
2023/09/08 01:28:24;;;;;;;8.27;7.40;;;;;;;;;;5069953;28;20131;-61
2023/09/08 01:30:50;;;;;;;13.25;8.88;;;;;;;;;;5068308;28;20399;-60
2023/09/08 01:33:15;;;;;;;9.60;7.70;;;;;;;;;;5069293;28;20394;-60
2023/09/08 01:35:40;;;;;;;8.52;7.63;;;;;;;;;;5068076;28;20514;-60
2023/09/08 01:38:06;;;;;;;11.83;8.10;;;;;;;;;;5069892;28;20020;-60
2023/09/08 01:40:31;;;;;;;9.75;8.02;;;;;;;;;;5067782;28;20036;-60
2023/09/08 01:42:56;;;;;;;9.02;8.23;;;;;;;;;;5069850;28;20056;-61
2023/09/08 01:45:21;;;;;;;8.68;7.57;;;;;;;;;;5068470;28;20467;-60
2023/09/08 01:47:46;;;;;;;18.05;8.52;;;;;;;;;;5068022;28;20077;-61
2023/09/08 01:50:11;;;;;;;8.57;7.67;;;;;;;;;;5067800;28;20032;-60
2023/09/08 01:52:37;;;;;;;10.93;8.73;;;;;;;;;;5069484;28;20104;-60
2023/09/08 01:55:02;;;;;;;10.13;8.77;;;;;;;;;;5069403;28;20466;-60
2023/09/08 01:57:27;;;;;;;14.93;8.27;;;;;;;;;;5067879;28;20029;-59
2023/09/08 01:59:52;;;;;;;22.55;10.25;;;;;;;;;;5069578;28;20443;-59
2023/09/08 02:02:17;;;;;;;15.70;10.13;;;;;;;;;;5069536;28;20119;-59
2023/09/08 02:04:42;;;;;;;10.17;9.17;;;;;;;;;;5073708;28;20016;-59
2023/09/08 02:07:08;;;;;;;10.30;8.50;;;;;;;;;;5071962;28;20036;-60
2023/09/08 02:09:37;;;;;;;14.48;8.35;;;;;;;;;;5063927;28;20953;-60
2023/09/08 02:12:02;;;;;;;10.80;8.65;;;;;;;;;;5056378;28;20037;-60
2023/09/08 02:14:27;;;;;;;10.10;9.10;;;;;;;;;;5073112;28;20029;-60
2023/09/08 02:16:53;;;;;;;8.73;7.77;;;;;;;;;;5071639;28;20399;-60
2023/09/08 02:19:18;;;;;;;10.05;8.63;;;;;;;;;;5072594;28;20024;-60
2023/09/08 02:21:43;;;;;;;9.45;8.45;;;;;;;;;;5071320;28;20086;-60
2023/09/08 02:24:09;;;;;;;10.35;7.97;;;;;;;;;;5072703;28;20021;-60
2023/09/08 02:26:34;;;;;;;10.77;8.88;;;;;;;;;;5071507;28;20401;-60
2023/09/08 02:28:59;;;;;;;9.95;8.95;;;;;;;;;;5073270;28;20024;-60
2023/09/08 02:31:26;;;;;;;8.52;7.70;;;;;;;;;;5071229;28;20047;-60
2023/09/08 02:33:51;;;;;;;11.35;10.05;;;;;;;;;;5072861;28;20040;-62
2023/09/08 02:36:16;;;;;;;10.43;9.33;;;;;;;;;;5071767;28;20028;-61
2023/09/08 02:38:41;;;;;;;12.38;9.55;;;;;;;;;;5072101;28;20610;-60
2023/09/08 02:41:06;;;;;;;13.67;8.17;;;;;;;;;;5071301;28;20029;-60
2023/09/08 02:43:32;;;;;;;11.98;10.82;;;;;;;;;;5070476;28;20506;-61
2023/09/08 02:45:57;;;;;;;12.07;10.43;;;;;;;;;;5071011;28;20549;-61
2023/09/08 02:48:22;;;;;;;11.48;10.05;;;;;;;;;;5073012;28;20032;-61
2023/09/08 02:50:47;;;;;;;10.93;9.57;;;;;;;;;;5070872;28;20090;-60
2023/09/08 02:53:12;;;;;;;18.95;10.43;;;;;;;;;;5071868;28;20043;-60
2023/09/08 02:55:37;;;;;;;10.43;9.33;;;;;;;;;;5071092;28;20039;-61
2023/09/08 02:58:02;;;;;;;9.75;8.77;;;;;;;;;;5072804;28;20075;-60
2023/09/08 03:00:28;;;;;;;14.60;10.97;;;;;;;;;;5069933;28;20025;-60
2023/09/08 03:02:53;;;;;;;14.75;10.40;;;;;;;;;;5072439;28;20450;-60
2023/09/08 03:05:18;;;;;;;23.92;10.18;;;;;;;;;;5071044;28;20115;-61
2023/09/08 03:07:43;;;;;;;11.87;10.63;;;;;;;;;;5071785;28;20070;-60
2023/09/08 03:10:09;;;;;;;10.77;9.45;;;;;;;;;;5072015;28;20352;-60
2023/09/08 03:12:34;;;;;;;11.80;10.38;;;;;;;;;;5070308;28;20044;-60
2023/09/08 03:15:00;;;;;;;9.20;8.35;;;;;;;;;;5070348;28;20127;-60
2023/09/08 03:17:25;;;;;;;11.40;10.02;;;;;;;;;;5069770;28;20541;-60
2023/09/08 03:19:50;;;;;;;10.23;9.10;;;;;;;;;;5072083;28;20027;-60
2023/09/08 03:22:15;;;;;;;11.60;10.37;;;;;;;;;;5070480;28;20048;-60
2023/09/08 03:24:40;;;;;;;9.27;8.32;;;;;;;;;;5071557;28;20457;-60
2023/09/08 03:27:06;;;;;;;11.32;10.18;;;;;;;;;;5070760;28;20037;-60
2023/09/08 03:29:31;;;;;;;12.70;11.43;;;;;;;;;;5071209;28;20548;-61
2023/09/08 03:31:56;;;;;;;15.75;11.40;;;;;;;;;;5069792;28;20028;-61
2023/09/08 03:34:21;;;;;;;19.20;11.98;;;;;;;;;;5071883;28;20035;-61
2023/09/08 03:36:47;;;;;;;14.32;9.52;;;;;;;;;;5070223;28;20501;-62
2023/09/08 03:39:12;;;;;;;14.73;11.68;;;;;;;;;;5071265;28;20071;-62
2023/09/08 03:41:38;;;;;;;28.80;12.27;;;;;;;;;;5068609;28;20171;-62
2023/09/08 03:44:03;;;;;;;13.32;10.48;;;;;;;;;;5071685;28;20728;-62
2023/09/08 03:46:28;;;;;;;12.95;10.95;;;;;;;;;;5069777;28;20044;-61
2023/09/08 03:49:00;;;;;;;12.07;10.60;;;;;;;;;;5071496;28;20032;-62
2023/09/08 03:51:25;;;;;;;15.45;11.52;;;;;;;;;;5049683;28;20524;-61
2023/09/08 03:53:51;;;;;;;17.70;11.97;;;;;;;;;;5070496;28;20048;-61
2023/09/08 03:56:16;;;;;;;13.18;11.85;;;;;;;;;;5070262;28;20046;-61
2023/09/08 03:58:41;;;;;;;12.23;11.10;;;;;;;;;;5071312;28;20383;-61
2023/09/08 04:01:06;;;;;;;14.33;12.93;;;;;;;;;;5069218;28;20032;-64
2023/09/08 04:03:31;;;;;;;13.47;12.03;;;;;;;;;;5070798;28;20021;-61
2023/09/08 04:05:56;;;;;;;12.68;11.38;;;;;;;;;;5069810;28;20043;-61
2023/09/08 04:08:21;;;;;;;13.77;12.43;;;;;;;;;;5070798;28;20020;-61
2023/09/08 04:10:47;;;;;;;15.15;13.40;;;;;;;;;;5069252;28;20467;-60
2023/09/08 04:13:12;;;;;;;16.90;11.88;;;;;;;;;;5069926;28;20016;-60
2023/09/08 04:15:37;;;;;;;13.25;11.73;;;;;;;;;;5068012;28;20036;-59
2023/09/08 04:18:02;;;;;;;12.43;11.18;;;;;;;;;;5071052;28;20780;-59
2023/09/08 04:20:28;;;;;;;15.13;13.60;;;;;;;;;;5068838;28;20086;-60
2023/09/08 04:22:53;;;;;;;12.27;11.00;;;;;;;;;;5070580;28;20383;-60
2023/09/08 04:25:18;;;;;;;17.87;13.97;;;;;;;;;;5069211;28;20442;-59
2023/09/08 04:27:44;;;;;;;21.27;13.10;;;;;;;;;;5052416;28;20082;-60
2023/09/08 04:30:09;;;;;;;13.27;11.88;;;;;;;;;;5049318;28;20411;-61
2023/09/08 04:32:37;;;;;;;15.23;11.77;;;;;;;;;;5064590;28;20041;-60
2023/09/08 04:35:02;;;;;;;12.68;11.38;;;;;;;;;;5051261;28;20349;-60
2023/09/08 04:37:27;;;;;;;14.95;11.55;;;;;;;;;;5055066;28;20051;-60
2023/09/08 04:39:52;;;;;;;16.58;12.82;;;;;;;;;;5069333;28;20096;-60
2023/09/08 04:42:18;;;;;;;15.07;13.43;;;;;;;;;;5068568;28;20036;-60
2023/09/08 04:44:43;;;;;;;14.10;12.70;;;;;;;;;;5068679;28;20408;-60
2023/09/08 04:47:08;;;;;;;14.40;13.00;;;;;;;;;;5069215;28;20029;-60
2023/09/08 04:49:33;;;;;;;13.07;11.82;;;;;;;;;;5070410;28;20021;-60
2023/09/08 04:51:58;;;;;;;14.07;11.60;;;;;;;;;;5068517;28;20028;-59
2023/09/08 04:54:26;;;;;;;13.48;12.10;;;;;;;;;;5070552;28;20597;-59
2023/09/08 04:56:52;;;;;;;13.02;11.70;;;;;;;;;;5069137;28;20036;-59
2023/09/08 04:59:17;;;;;;;19.87;12.37;;;;;;;;;;5069887;28;20021;-59
2023/09/08 05:01:43;;;;;;;17.25;14.40;;;;;;;;;;5068689;28;20039;-59
2023/09/08 05:04:08;;;;;;;19.58;12.20;;;;;;;;;;5070594;28;20021;-59
2023/09/08 05:06:33;;;;;;;16.65;11.90;;;;;;;;;;5068687;28;20036;-59
2023/09/08 05:08:59;;;;;;;13.07;11.82;;;;;;;;;;5070558;28;20025;-59
2023/09/08 05:11:25;;;;;;;13.50;11.13;;;;;;;;;;5068987;28;20036;-59
2023/09/08 05:13:51;;;;;;;21.55;14.70;;;;;;;;;;5070399;28;20029;-59
2023/09/08 05:16:18;;;;;;;14.68;13.30;;;;;;;;;;5068954;28;20031;-59
2023/09/08 05:18:43;;;;;;;14.80;13.18;;;;;;;;;;5070070;28;20012;-59
2023/09/08 05:21:09;;;;;;;15.50;13.15;;;;;;;;;;5068337;28;20082;-60
2023/09/08 05:23:34;;;;;;;15.05;12.85;;;;;;;;;;5070106;28;20490;-58
2023/09/08 05:25:59;;;;;;;14.17;12.67;;;;;;;;;;5068828;28;20443;-59
2023/09/08 05:28:24;;;;;;;15.15;12.90;;;;;;;;;;5069719;28;20020;-59
2023/09/08 05:30:53;;;;;;;14.80;12.53;;;;;;;;;;5068419;28;20046;-59
2023/09/08 05:33:18;;;;;;;18.50;13.85;;;;;;;;;;5069948;28;20024;-61
2023/09/08 05:35:44;;;;;;;15.70;11.37;;;;;;;;;;5068085;28;20035;-62
2023/09/08 05:38:09;;;;;;;21.38;14.30;;;;;;;;;;5073204;28;20468;-61
2023/09/08 05:40:35;;;;;;;14.02;12.35;;;;;;;;;;5072249;28;20037;-61
2023/09/08 05:43:00;;;;;;;17.42;13.55;;;;;;;;;;5072785;28;20044;-59
2023/09/08 05:45:25;;;;;;;17.77;12.50;;;;;;;;;;5071987;28;20375;-58
2023/09/08 05:47:50;;;;;;;14.75;13.13;;;;;;;;;;5073910;28;20100;-58
2023/09/08 05:50:16;;;;;;;14.82;13.23;;;;;;;;;;5072202;28;20020;-57
2023/09/08 05:52:41;;;;;;;16.43;11.77;;;;;;;;;;5073157;28;20417;-57
2023/09/08 05:55:06;;;;;;;27.25;14.82;;;;;;;;;;5073972;28;20464;-57
2023/09/08 05:57:31;;;;;;;14.75;13.23;;;;;;;;;;5072123;28;20480;-57
2023/09/08 05:59:56;;;;;;;25.05;13.32;;;;;;;;;;5073556;28;20020;-57
2023/09/08 06:02:22;;;;;;;14.10;12.75;;;;;;;;;;5072056;28;20033;-58
2023/09/08 06:04:47;;;;;;;17.05;12.65;;;;;;;;;;5073822;28;20439;-57
2023/09/08 06:07:12;;;;;;;16.03;12.40;;;;;;;;;;5070446;28;20032;-57
2023/09/08 06:09:37;;;;;;;14.25;12.80;;;;;;;;;;5073308;28;20024;-57
2023/09/08 06:12:03;;;;;;;19.57;12.03;;;;;;;;;;5072064;28;20499;-57
2023/09/08 06:14:28;;;;;;;14.40;12.65;;;;;;;;;;5071446;28;20036;-58
2023/09/08 06:16:53;;;;;;;19.20;12.13;;;;;;;;;;5071872;28;20035;-58
2023/09/08 06:19:18;;;;;;;13.10;10.80;;;;;;;;;;5073785;28;20074;-57
2023/09/08 06:21:43;;;;;;;11.38;10.38;;;;;;;;;;5071355;28;20482;-57
2023/09/08 06:24:08;;;;;;;15.17;12.90;;;;;;;;;;5073332;28;20070;-57
2023/09/08 06:26:34;;;;;;;13.57;11.80;;;;;;;;;;5071574;28;20400;-57
2023/09/08 06:28:59;;;;;;;16.33;11.73;;;;;;;;;;5071059;28;20114;-57
2023/09/08 06:31:24;;;;;;;10.38;9.40;;;;;;;;;;5069983;28;20036;-58
2023/09/08 06:33:51;;;;;;;15.23;9.80;;;;;;;;;;5070898;28;20131;-57
2023/09/08 06:36:17;;;;;;;11.83;9.53;;;;;;;;;;5069475;28;20610;-58
2023/09/08 06:38:42;;;;;;;11.77;10.67;;;;;;;;;;5070690;28;20131;-58
2023/09/08 06:41:11;;;;;;;12.53;10.60;;;;;;;;;;5061957;28;20033;-57
2023/09/08 06:43:36;;;;;;;11.80;10.50;;;;;;;;;;5052517;28;20017;-58
2023/09/08 06:46:01;;;;;;;9.65;8.70;;;;;;;;;;5058301;28;20033;-58
2023/09/08 06:48:26;;;;;;;12.40;11.13;;;;;;;;;;5055149;28;20029;-58
2023/09/08 06:50:56;;;;;;;12.43;9.83;;;;;;;;;;5050731;28;20025;-58
2023/09/08 06:53:21;;;;;;;15.27;9.80;;;;;;;;;;5053015;28;20024;-57
2023/09/08 06:55:46;;;;;;;14.57;8.32;;;;;;;;;;5050831;28;20116;-58
2023/09/08 06:58:14;;;;;;;9.88;8.13;;;;;;;;;;5052349;28;20067;-58
2023/09/08 07:00:39;;;;;;;9.10;7.68;;;;;;;;;;5066198;28;20539;-62
2023/09/08 07:03:05;;;;;;;17.02;7.38;;;;;;;;;;5072440;28;20149;-59
2023/09/08 07:05:30;;;;;;;10.60;8.70;;;;;;;;;;5068850;28;20364;-57
2023/09/08 07:07:55;;;;;;;9.33;7.00;;;;;;;;;;5072444;28;20029;-59
2023/09/08 07:10:21;;;;;;;8.05;7.25;;;;;;;;;;5070657;28;20554;-59
2023/09/08 07:12:47;;;;;;;9.93;7.65;;;;;;;;;;5070951;28;20487;-58
2023/09/08 07:15:12;;;;;;;10.98;6.57;;;;;;;;;;5071083;28;20038;-58
2023/09/08 07:17:37;;;;;;;6.07;5.38;;;;;;;;;;5072419;28;20274;-59
2023/09/08 07:20:03;;;;;;;8.55;6.57;;;;;;;;;;5071977;28;20472;-60
2023/09/08 07:22:28;;;;;;;13.15;6.22;;;;;;;;;;5070749;28;20037;-57
2023/09/08 07:24:53;;;;;;;11.10;6.53;;;;;;;;;;5072332;28;20017;-57
2023/09/08 07:27:20;;;;;;;6.60;6.00;;;;;;;;;;5070388;28;20033;-57
2023/09/08 07:29:45;;;;;;;6.15;5.45;;;;;;;;;;5072208;28;20070;-58
2023/09/08 07:32:10;;;;;;;17.33;6.80;;;;;;;;;;5070418;28;20036;-58
2023/09/08 07:34:35;;;;;;;9.60;6.17;;;;;;;;;;5071494;28;20017;-58
2023/09/08 07:37:01;;;;;;;5.70;5.10;;;;;;;;;;5069185;28;20500;-59
2023/09/08 07:39:26;;;;;;;7.07;5.10;;;;;;;;;;5071367;28;20045;-59
2023/09/08 07:41:52;;;;;;;8.00;5.47;;;;;;;;;;5068792;28;20055;-59
2023/09/08 07:44:17;;;;;;;7.88;5.43;;;;;;;;;;5069008;28;20078;-59
2023/09/08 07:46:43;;;;;;;7.32;4.93;;;;;;;;;;5067747;28;20036;-64
2023/09/08 07:49:09;;;;;;;10.55;5.15;;;;;;;;;;5070784;28;20111;-66
2023/09/08 07:51:34;;;;;;;6.38;5.22;;;;;;;;;;5067276;28;20044;-59
2023/09/08 07:53:59;;;;;;;5.22;4.65;;;;;;;;;;5068816;28;20055;-58
2023/09/08 07:56:24;;;;;;;7.17;5.07;;;;;;;;;;5068106;28;20098;-58
2023/09/08 07:58:50;;;;;;;8.20;5.40;;;;;;;;;;5070976;28;20121;-58
2023/09/08 08:01:15;;;;;;;7.07;4.93;;;;;;;;;;5069727;28;20048;-58
2023/09/08 08:03:40;;;;;;;11.23;4.82;;;;;;;;;;5070243;28;20492;-58
2023/09/08 08:06:06;;;;;;;5.90;4.05;;;;;;;;;;5066349;28;20043;-59
2023/09/08 08:08:31;;;;;;;7.00;5.00;;;;;;;;;;5071043;28;20021;-58
2023/09/08 08:10:56;;;;;;;10.57;5.15;;;;;;;;;;5066311;28;20051;-59
2023/09/08 08:13:21;;;;;;;5.63;4.97;;;;;;;;;;5069919;28;20081;-59
2023/09/08 08:15:47;;;;;;;6.87;4.87;;;;;;;;;;5064934;28;20029;-68
2023/09/08 08:18:12;;;;;;;4.20;3.80;;;;;;;;;;5051301;28;20044;-59
2023/09/08 08:20:38;;;;;;;8.32;5.68;;;;;;;;;;5051698;28;20029;-60
2023/09/08 08:23:04;;;;;;;28.92;6.75;;;;;;;;;;5070426;28;20031;-59
2023/09/08 08:25:29;;;;;;;8.32;5.50;;;;;;;;;;5069502;28;20452;-59
2023/09/08 08:27:56;;;;;;;8.03;6.23;;;;;;;;;;5070544;28;20115;-61
2023/09/08 08:30:21;;;;;;;10.55;5.40;;;;;;;;;;5069494;28;20031;-58
2023/09/08 08:32:46;;;;;;;6.78;6.15;;;;;;;;;;5070329;28;20024;-58
2023/09/08 08:35:11;;;;;;;8.20;5.47;;;;;;;;;;5070818;28;20022;-59
2023/09/08 08:37:36;;;;;;;9.00;5.83;;;;;;;;;;5067580;28;20036;-58
2023/09/08 08:40:03;;;;;;;112.90;12.60;;;;;;;;;;5063995;28;20037;-59
2023/09/08 08:42:34;;;;;;;11.13;5.57;;;;;;;;;;5066574;28;20067;-59
2023/09/08 08:45:00;;;;;;;11.18;6.57;;;;;;;;;;5071027;28;21320;-59
2023/09/08 08:47:26;;;;;;;5.10;4.20;;;;;;;;;;5069723;28;20056;-58
2023/09/08 08:49:53;;;;;;;6.45;4.78;;;;;;;;;;5069691;28;20023;-59
2023/09/08 08:52:18;;;;;;;6.35;4.18;;;;;;;;;;5065658;28;20539;-59
2023/09/08 08:54:45;;;;;;;6.30;5.07;;;;;;;;;;5043616;28;20029;-59
2023/09/08 08:57:11;;;;;;;4.80;4.10;;;;;;;;;;5064727;28;20132;-59
2023/09/08 08:59:36;;;;;;;5.13;4.30;;;;;;;;;;5064907;28;20028;-59
2023/09/08 09:02:03;;;;;;;8.90;4.97;;;;;;;;;;5069129;28;20025;-59
2023/09/08 09:04:28;;;;;;;10.50;5.13;;;;;;;;;;5070367;28;20031;-59
2023/09/08 09:06:54;;;;;;;9.23;4.50;;;;;;;;;;5069136;28;20398;-59
2023/09/08 09:09:20;;;;;;;10.40;5.05;;;;;;;;;;5066887;28;20021;-59
2023/09/08 09:11:45;;;;;;;14.27;5.38;;;;;;;;;;5059298;28;20037;-58
2023/09/08 09:14:10;;;;;;;9.70;4.73;;;;;;;;;;5051482;28;20499;-59
2023/09/08 09:16:40;;;;;;;5.40;4.30;;;;;;;;;;5059039;28;20032;-62
2023/09/08 09:19:05;;;;;;;5.13;3.42;;;;;;;;;;5068585;28;20051;-59
2023/09/08 09:21:41;;;;;;;9.73;5.03;;;;;;;;;;5067160;28;20483;-60
2023/09/08 09:24:06;;;;;;;5.20;3.80;;;;;;;;;;5069700;28;20059;-59
2023/09/08 09:26:31;;;;;;;5.53;4.57;;;;;;;;;;5058274;28;20406;-58
2023/09/08 09:28:59;;;;;;;8.47;3.87;;;;;;;;;;5050518;28;20108;-59
2023/09/08 09:31:25;;;;;;;5.90;4.35;;;;;;;;;;5058556;28;20492;-59
2023/09/08 09:34:04;;;;;;;6.13;3.67;;;;;;;;;;5069111;28;20567;-60
2023/09/08 09:36:29;;;;;;;8.95;5.55;;;;;;;;;;5068205;28;20123;-59
2023/09/08 09:38:57;;;;;;;5.47;4.20;;;;;;;;;;5069739;28;20128;-59
2023/09/08 09:41:23;;;;;;;4.75;4.20;;;;;;;;;;5067655;28;20025;-59
2023/09/08 09:43:48;;;;;;;5.15;4.28;;;;;;;;;;5069642;28;20039;-59
2023/09/08 09:46:14;;;;;;;5.90;4.40;;;;;;;;;;5067839;28;20063;-59
2023/09/08 09:48:39;;;;;;;6.63;4.13;;;;;;;;;;5069127;28;20033;-59
2023/09/08 09:51:19;;;;;;;10.30;4.70;;;;;;;;;;5068448;28;20029;-59
2023/09/08 09:53:44;;;;;;;5.55;4.35;;;;;;;;;;5069580;28;20013;-59
2023/09/08 09:56:09;;;;;;;5.68;4.75;;;;;;;;;;5068488;28;20035;-59
2023/09/08 09:58:35;;;;;;;10.93;5.07;;;;;;;;;;5069492;28;20507;-59
2023/09/08 10:01:00;;;;;;;7.22;4.72;;;;;;;;;;5068443;28;20060;-59
2023/09/08 10:03:26;;;;;;;7.55;4.97;;;;;;;;;;5069610;28;20021;-59
2023/09/08 10:05:52;;;;;;;4.68;4.22;;;;;;;;;;5065055;28;20036;-59
2023/09/08 10:08:17;;;;;;;7.25;4.13;;;;;;;;;;5039221;28;20026;-59
2023/09/08 10:10:45;;;;;;;6.10;4.80;;;;;;;;;;5032059;28;20598;-59
2023/09/08 10:13:12;;;;;;;6.88;5.03;;;;;;;;;;5053028;28;20696;-59
2023/09/08 10:15:37;;;;;;;8.00;5.53;;;;;;;;;;5066815;28;20516;-59
2023/09/08 10:18:04;;;;;;;10.00;4.50;;;;;;;;;;5068432;28;20023;-60
2023/09/08 10:20:31;;;;;;;7.13;4.40;;;;;;;;;;5068200;28;20115;-71
2023/09/08 10:23:00;;;;;;;7.63;4.33;;;;;;;;;;5070925;28;20017;-59
2023/09/08 10:25:26;;;;;;;6.68;4.65;;;;;;;;;;5071906;28;20039;-59
2023/09/08 10:27:53;;;;;;;8.75;4.50;;;;;;;;;;5073481;28;20044;-59
2023/09/08 10:30:21;;;;;;;7.55;4.28;;;;;;;;;;5071767;28;20281;-59
2023/09/08 10:32:49;;;;;;;7.13;4.85;;;;;;;;;;5059771;28;20472;-59
2023/09/08 10:35:17;;;;;;;5.43;4.55;;;;;;;;;;5053229;28;20031;-59
2023/09/08 10:37:42;;;;;;;7.25;4.35;;;;;;;;;;5062835;28;20537;-71
2023/09/08 10:40:20;;;;;;;13.17;6.00;;;;;;;;;;5072099;28;20053;-60
2023/09/08 10:42:46;;;;;;;5.03;4.38;;;;;;;;;;5067939;28;20127;-60
2023/09/08 10:45:15;;;;;;;4.85;4.25;;;;;;;;;;5072768;28;20100;-59
2023/09/08 10:47:46;;;;;;;6.30;4.18;;;;;;;;;;5070866;28;20041;-59
2023/09/08 10:50:17;;;;;;;8.50;4.63;;;;;;;;;;5072102;28;20109;-59
2023/09/08 10:52:42;;;;;;;5.75;4.60;;;;;;;;;;5071217;28;20043;-59
2023/09/08 10:55:08;;;;;;;5.93;4.30;;;;;;;;;;5072596;28;20028;-59
2023/09/08 10:57:33;;;;;;;8.05;4.93;;;;;;;;;;5071300;28;20032;-59
2023/09/08 11:00:01;;;;;;;4.50;4.00;;;;;;;;;;5071655;28;20070;-59
2023/09/08 11:02:41;;;;;;;5.03;4.63;;;;;;;;;;5070387;28;20129;-59
2023/09/08 11:05:10;;;;;;;7.60;4.63;;;;;;;;;;5072894;28;20070;-59
2023/09/08 11:07:36;;;;;;;9.45;4.80;;;;;;;;;;5070485;28;20029;-59
2023/09/08 11:10:02;;;;;;;12.98;4.43;;;;;;;;;;5072557;28;20044;-58
2023/09/08 11:12:28;;;;;;;5.70;3.50;;;;;;;;;;5070950;28;20025;-65
2023/09/08 11:14:53;;;;;;;5.45;4.45;;;;;;;;;;5072489;28;20565;-59
2023/09/08 11:17:18;;;;;;;5.57;3.75;;;;;;;;;;5069894;28;20032;-58
2023/09/08 11:19:48;;;;;;;12.25;4.78;;;;;;;;;;5072046;28;20025;-59
2023/09/08 11:22:16;;;;;;;8.73;4.65;;;;;;;;;;5070298;28;20055;-63
2023/09/08 11:24:42;;;;;;;6.65;5.00;;;;;;;;;;5070293;28;20445;-59
2023/09/08 11:27:07;;;;;;;6.55;4.22;;;;;;;;;;5070580;28;20032;-59
2023/09/08 11:29:33;;;;;;;7.17;4.73;;;;;;;;;;5071658;28;20028;-59
2023/09/08 11:31:58;;;;;;;6.93;4.53;;;;;;;;;;5067193;28;20044;-58
2023/09/08 11:34:23;;;;;;;7.80;4.27;;;;;;;;;;5068118;28;20450;-59
2023/09/08 11:36:48;;;;;;;6.53;4.23;;;;;;;;;;5064374;28;20033;-59
2023/09/08 11:39:14;;;;;;;8.10;5.15;;;;;;;;;;5053165;28;20500;-59
2023/09/08 11:41:39;;;;;;;7.20;4.60;;;;;;;;;;5049430;28;20044;-59
2023/09/08 11:44:04;;;;;;;9.25;4.15;;;;;;;;;;5062153;28;20052;-60
2023/09/08 11:46:30;;;;;;;10.47;4.23;;;;;;;;;;5067239;28;20032;-59
2023/09/08 11:48:55;;;;;;;13.95;5.25;;;;;;;;;;5051806;28;20615;-59
2023/09/08 11:51:24;;;;;;;7.30;5.25;;;;;;;;;;5050315;28;20502;-60
2023/09/08 11:53:49;;;;;;;7.63;5.35;;;;;;;;;;5050986;28;20025;-59
2023/09/08 11:56:14;;;;;;;9.43;4.78;;;;;;;;;;5059255;28;20036;-60
2023/09/08 11:58:40;;;;;;;9.93;4.73;;;;;;;;;;5034918;28;20079;-60
2023/09/08 12:01:05;;;;;;;5.30;4.20;;;;;;;;;;5036800;28;20543;-59
2023/09/08 12:03:30;;;;;;;4.50;4.10;;;;;;;;;;5064005;28;20030;-59
2023/09/08 12:05:55;;;;;;;5.27;4.53;;;;;;;;;;5069513;28;20466;-59
2023/09/08 12:08:20;;;;;;;7.87;4.40;;;;;;;;;;5070898;28;20052;-59
2023/09/08 12:10:45;;;;;;;6.50;4.47;;;;;;;;;;5069297;28;20040;-59
2023/09/08 12:13:13;;;;;;;5.10;4.53;;;;;;;;;;5069338;28;20016;-59
2023/09/08 12:15:39;;;;;;;10.23;4.90;;;;;;;;;;5068977;28;20035;-59
2023/09/08 12:18:06;;;;;;;5.53;4.35;;;;;;;;;;5068053;28;20199;-59
2023/09/08 12:20:32;;;;;;;7.68;5.05;;;;;;;;;;5068483;28;20020;-59
2023/09/08 12:23:01;;;;;;;5.03;4.38;;;;;;;;;;5070588;28;20036;-59
2023/09/08 12:25:27;;;;;;;5.20;4.45;;;;;;;;;;5069447;28;20424;-59
2023/09/08 12:27:53;;;;;;;4.45;3.88;;;;;;;;;;5070663;28;20044;-59
2023/09/08 12:30:24;;;;;;;4.87;4.37;;;;;;;;;;5066758;28;20544;-59
2023/09/08 12:32:50;;;;;;;7.88;4.47;;;;;;;;;;5067660;28;20280;-61
2023/09/08 12:35:24;;;;;;;7.50;4.05;;;;;;;;;;5058698;28;20054;-58
2023/09/08 12:37:53;;;;;;;6.15;4.43;;;;;;;;;;5050317;28;20025;-59
2023/09/08 12:40:18;;;;;;;7.70;5.45;;;;;;;;;;5048468;28;20226;-58
2023/09/08 12:42:44;;;;;;;32.80;4.60;;;;;;;;;;5063050;28;20105;-59
2023/09/08 12:45:09;;;;;;;6.80;4.97;;;;;;;;;;5068347;28;20162;-59
2023/09/08 12:47:35;;;;;;;6.93;5.17;;;;;;;;;;5056896;28;21044;-59
2023/09/08 12:50:00;;;;;;;8.63;4.78;;;;;;;;;;5068285;28;20814;-59
2023/09/08 12:52:25;;;;;;;5.73;4.37;;;;;;;;;;5061437;28;20029;-59
2023/09/08 12:54:50;;;;;;;7.97;3.50;;;;;;;;;;5070395;28;20472;-59
2023/09/08 12:57:15;;;;;;;28.77;5.40;;;;;;;;;;5067546;28;20613;-59
2023/09/08 12:59:41;;;;;;;15.50;5.13;;;;;;;;;;5066922;28;20035;-60
2023/09/08 13:02:06;;;;;;;8.87;4.27;;;;;;;;;;5058093;28;20071;-59
2023/09/08 13:04:32;;;;;;;8.10;4.10;;;;;;;;;;5033458;28;20108;-59
2023/09/08 13:06:58;;;;;;;6.32;4.68;;;;;;;;;;5061410;28;20488;-60
2023/09/08 13:09:23;;;;;;;8.98;5.38;;;;;;;;;;5069455;28;20047;-62
2023/09/08 13:11:48;;;;;;;5.60;3.97;;;;;;;;;;5068020;28;20491;-59
2023/09/08 13:14:13;;;;;;;5.17;4.50;;;;;;;;;;5069801;28;20021;-59
2023/09/08 13:16:38;;;;;;;7.65;5.00;;;;;;;;;;5067257;28;20071;-59
2023/09/08 13:19:04;;;;;;;5.97;4.03;;;;;;;;;;5069990;28;20017;-59
2023/09/08 13:21:29;;;;;;;5.32;4.80;;;;;;;;;;5067625;28;20043;-60
2023/09/08 13:23:54;;;;;;;8.80;4.33;;;;;;;;;;5069941;28;20051;-60
2023/09/08 13:26:19;;;;;;;6.53;5.05;;;;;;;;;;5068490;28;20538;-60
2023/09/08 13:28:44;;;;;;;15.45;4.75;;;;;;;;;;5069058;28;20032;-59
2023/09/08 13:31:10;;;;;;;9.77;4.67;;;;;;;;;;5066876;28;20561;-59
2023/09/08 13:33:35;;;;;;;4.25;3.83;;;;;;;;;;5068690;28;20032;-59
2023/09/08 13:36:00;;;;;;;9.27;5.93;;;;;;;;;;5058573;28;20029;-59
2023/09/08 13:38:25;;;;;;;7.40;5.10;;;;;;;;;;5069024;28;20969;-59
2023/09/08 13:40:50;;;;;;;7.35;5.32;;;;;;;;;;5067728;28;20028;-61
2023/09/08 13:43:16;;;;;;;5.57;4.90;;;;;;;;;;5055357;28;20222;-59
2023/09/08 13:45:42;;;;;;;4.87;4.23;;;;;;;;;;5066337;28;20547;-62
2023/09/08 13:48:07;;;;;;;5.70;5.05;;;;;;;;;;5069905;28;20082;-59
2023/09/08 13:50:32;;;;;;;6.20;5.37;;;;;;;;;;5068238;28;20040;-59
2023/09/08 13:52:58;;;;;;;4.83;4.43;;;;;;;;;;5053899;28;20380;-60
2023/09/08 13:55:23;;;;;;;7.75;5.15;;;;;;;;;;5046897;28;20033;-59
2023/09/08 13:57:49;;;;;;;14.48;5.80;;;;;;;;;;5032503;28;20029;-59
2023/09/08 14:00:14;;;;;;;7.25;6.55;;;;;;;;;;5033513;28;20465;-59
2023/09/08 14:02:39;;;;;;;15.73;6.20;;;;;;;;;;5064396;28;20043;-60
2023/09/08 14:05:05;;;;;;;10.65;5.03;;;;;;;;;;5073649;28;20481;-59
2023/09/08 14:07:30;;;;;;;8.95;4.43;;;;;;;;;;5071267;28;20040;-59
2023/09/08 14:09:55;;;;;;;9.37;5.30;;;;;;;;;;5072884;28;20099;-59
2023/09/08 14:12:20;;;;;;;18.47;5.83;;;;;;;;;;5069789;28;20511;-59
2023/09/08 14:14:46;;;;;;;9.53;5.10;;;;;;;;;;5072238;28;20191;-59
2023/09/08 14:17:11;;;;;;;11.18;5.38;;;;;;;;;;5071880;28;20404;-59
2023/09/08 14:19:36;;;;;;;5.32;4.82;;;;;;;;;;5072254;28;20059;-59
2023/09/08 14:22:01;;;;;;;6.68;5.25;;;;;;;;;;5070574;28;20037;-59
2023/09/08 14:24:26;;;;;;;7.75;4.97;;;;;;;;;;5072882;28;20472;-59